createdAt,value
2022-11-24T00:00:34.729Z,12.72
2022-11-24T00:03:27.171Z,12.61
2022-11-24T00:05:59.726Z,12.56
2022-11-24T00:08:32.182Z,12.54
2022-11-24T00:11:09.590Z,12.52
2022-11-24T00:13:42.451Z,12.52
2022-11-24T00:16:16.710Z,12.44
2022-11-24T00:18:50.534Z,12.32
2022-11-24T00:21:23.706Z,12.27
2022-11-24T00:23:56.335Z,12.27
2022-11-24T00:26:30.752Z,12.23
2022-11-24T00:29:06.096Z,12.26
2022-11-24T00:31:40.064Z,12.25
2022-11-24T00:34:14.977Z,12.25
2022-11-24T00:36:47.577Z,12.20
2022-11-24T00:39:20.074Z,12.15
2022-11-24T00:41:52.604Z,12.07
2022-11-24T00:44:25.033Z,12.01
2022-11-24T00:46:57.716Z,12.01
2022-11-24T00:49:28.534Z,11.97
2022-11-24T00:52:01.053Z,11.87
2022-11-24T00:54:33.653Z,11.72
2022-11-24T00:57:04.693Z,11.65
2022-11-24T00:59:37.244Z,11.58
2022-11-24T01:02:09.740Z,11.53
2022-11-24T01:04:42.278Z,11.49
2022-11-24T01:07:15.073Z,11.44
2022-11-24T01:09:47.602Z,11.38
2022-11-24T01:12:20.229Z,11.35
2022-11-24T01:14:52.704Z,11.29
2022-11-24T01:17:25.234Z,11.33
2022-11-24T01:19:57.613Z,11.33
2022-11-24T01:22:30.001Z,11.32
2022-11-24T01:25:02.380Z,11.40
2022-11-24T01:27:34.983Z,11.38
2022-11-24T01:30:09.273Z,11.28
2022-11-24T01:32:41.752Z,11.27
2022-11-24T01:35:14.274Z,11.33
2022-11-24T01:37:46.866Z,11.38
2022-11-24T01:40:19.786Z,11.43
2022-11-24T01:42:53.882Z,11.39
2022-11-24T01:45:40.986Z,11.32
2022-11-24T01:48:23.216Z,11.25
2022-11-24T01:51:08.470Z,11.17
2022-11-24T01:53:41.305Z,11.04
2022-11-24T01:56:12.105Z,10.94
2022-11-24T01:58:46.873Z,10.87
2022-11-24T02:01:19.423Z,10.80
2022-11-24T02:03:52.765Z,10.82
2022-11-24T02:06:27.130Z,10.82
2022-11-24T02:09:01.952Z,10.83
2022-11-24T02:11:39.032Z,10.87
2022-11-24T02:14:13.946Z,10.85
2022-11-24T02:16:49.838Z,10.78
2022-11-24T02:19:29.325Z,10.77
2022-11-24T02:22:01.866Z,10.75
2022-11-24T02:24:39.854Z,10.67
2022-11-24T02:27:12.921Z,10.55
2022-11-24T02:29:45.607Z,10.50
2022-11-24T02:32:19.007Z,10.39
2022-11-24T02:34:51.534Z,10.35
2022-11-24T02:37:24.054Z,10.25
2022-11-24T02:39:56.518Z,10.18
2022-11-24T02:42:30.073Z,10.17
2022-11-24T02:45:03.448Z,10.04
2022-11-24T02:47:35.889Z,9.96
2022-11-24T02:50:09.660Z,9.90
2022-11-24T02:52:42.275Z,9.81
2022-11-24T02:55:14.859Z,9.71
2022-11-24T02:57:47.327Z,9.72
2022-11-24T03:00:21.801Z,9.78
2022-11-24T03:02:54.417Z,9.82
2022-11-24T03:05:27.171Z,9.87
2022-11-24T03:07:59.650Z,9.89
2022-11-24T03:10:32.342Z,9.95
2022-11-24T03:13:04.823Z,9.98
2022-11-24T03:15:38.060Z,10.02
2022-11-24T03:18:10.860Z,10.13
2022-11-24T03:20:43.442Z,10.25
2022-11-24T03:23:15.882Z,10.20
2022-11-24T03:25:48.520Z,10.03
2022-11-24T03:28:21.125Z,9.92
2022-11-24T03:30:53.667Z,10.00
2022-11-24T03:33:26.133Z,10.10
2022-11-24T03:35:58.702Z,10.20
2022-11-24T03:38:31.218Z,10.31
2022-11-24T03:41:03.779Z,10.40
2022-11-24T03:43:41.949Z,10.51
2022-11-24T03:46:16.304Z,10.48
2022-11-24T03:48:48.878Z,10.51
2022-11-24T03:51:21.310Z,10.59
2022-11-24T03:53:53.757Z,10.55
2022-11-24T03:56:26.247Z,10.46
2022-11-24T03:58:58.722Z,10.37
2022-11-24T04:01:31.374Z,10.30
2022-11-24T04:04:03.955Z,10.25
2022-11-24T04:06:36.471Z,10.25
2022-11-24T04:09:09.372Z,10.31
2022-11-24T04:11:59.302Z,10.28
2022-11-24T04:14:32.121Z,10.16
2022-11-24T04:17:05.930Z,10.04
2022-11-24T04:19:38.420Z,10.00
2022-11-24T04:22:11.188Z,9.92
2022-11-24T04:24:43.752Z,9.82
2022-11-24T04:27:16.407Z,9.80
2022-11-24T04:29:49.047Z,9.83
2022-11-24T04:32:21.702Z,9.93
2022-11-24T04:34:54.279Z,10.02
2022-11-24T04:37:26.855Z,10.04
2022-11-24T04:39:59.633Z,10.14
2022-11-24T04:42:32.255Z,10.26
2022-11-24T04:45:06.014Z,10.25
2022-11-24T04:47:38.586Z,10.20
2022-11-24T04:50:12.291Z,10.20
2022-11-24T04:52:44.903Z,10.22
2022-11-24T04:55:17.479Z,10.24
2022-11-24T04:57:50.178Z,10.16
2022-11-24T05:00:21.669Z,10.18
2022-11-24T05:02:54.177Z,10.20
2022-11-24T05:05:26.825Z,10.22
2022-11-24T05:08:01.482Z,10.27
2022-11-24T05:10:37.462Z,10.33
2022-11-24T05:13:14.024Z,10.38
2022-11-24T05:15:46.644Z,10.49
2022-11-24T05:18:19.452Z,10.57
2022-11-24T05:20:50.366Z,10.64
2022-11-24T05:23:23.025Z,10.68
2022-11-24T05:25:56.625Z,10.68
2022-11-24T05:28:29.329Z,10.63
2022-11-24T05:31:04.028Z,10.57
2022-11-24T05:33:38.700Z,10.50
2022-11-24T05:36:33.441Z,10.51
2022-11-24T05:39:06.233Z,10.58
2022-11-24T05:41:38.686Z,10.61
2022-11-24T05:44:11.401Z,10.63
2022-11-24T05:46:43.902Z,10.55
2022-11-24T05:49:16.408Z,10.51
2022-11-24T05:51:48.793Z,10.52
2022-11-24T05:54:21.425Z,10.50
2022-11-24T05:56:54.002Z,10.39
2022-11-24T05:59:26.522Z,10.29
2022-11-24T06:01:59.192Z,10.21
2022-11-24T06:04:31.848Z,10.20
2022-11-24T06:07:02.977Z,10.26
2022-11-24T06:14:23.457Z,10.19
2022-11-24T06:21:11.544Z,10.29
2022-11-24T06:23:44.863Z,10.36
2022-11-24T06:26:17.917Z,10.38
2022-11-24T06:28:50.524Z,10.42
2022-11-24T06:40:29.760Z,10.32
2022-11-24T06:43:00.725Z,10.16
2022-11-24T06:46:01.069Z,10.07
2022-11-24T06:48:34.661Z,9.93
2022-11-24T06:51:08.864Z,9.88
2022-11-24T06:53:42.331Z,9.85
2022-11-24T06:56:17.021Z,9.86
2022-11-24T06:58:51.019Z,9.86
2022-11-24T07:01:25.483Z,9.80
2022-11-24T07:03:58.745Z,9.80
2022-11-24T07:06:31.232Z,9.84
2022-11-24T07:09:03.634Z,9.91
2022-11-24T07:11:35.897Z,9.91
2022-11-24T07:14:08.334Z,9.85
2022-11-24T07:16:41.519Z,9.85
2022-11-24T07:19:13.964Z,9.89
2022-11-24T07:21:46.203Z,9.91
2022-11-24T07:24:19.022Z,9.86
2022-11-24T07:26:51.471Z,9.87
2022-11-24T07:29:23.825Z,9.89
2022-11-24T07:31:58.555Z,9.92
2022-11-24T07:34:34.735Z,9.99
2022-11-24T07:37:07.356Z,9.99
2022-11-24T07:39:39.664Z,9.98
2022-11-24T07:42:12.037Z,9.95
2022-11-24T07:44:44.310Z,9.92
2022-11-24T07:47:16.706Z,9.86
2022-11-24T07:49:49.123Z,9.84
2022-11-24T07:52:21.495Z,9.84
2022-11-24T07:54:53.763Z,9.93
2022-11-24T07:57:26.205Z,10.02
2022-11-24T07:59:58.429Z,10.05
2022-11-24T08:02:30.827Z,10.08
2022-11-24T08:05:03.145Z,10.16
2022-11-24T08:07:35.877Z,10.23
2022-11-24T08:10:07.233Z,10.26
2022-11-24T08:12:39.503Z,10.34
2022-11-24T08:15:13.761Z,10.40
2022-11-24T08:17:46.068Z,10.44
2022-11-24T08:20:18.618Z,10.48
2022-11-24T08:22:49.155Z,10.53
2022-11-24T08:25:24.583Z,10.52
2022-11-24T08:27:56.788Z,10.53
2022-11-24T08:30:29.130Z,10.56
2022-11-24T08:37:37.094Z,10.54
2022-11-24T08:40:11.865Z,10.48
2022-11-24T08:42:46.441Z,10.45
2022-11-24T08:45:21.244Z,10.40
2022-11-24T08:47:56.247Z,10.33
2022-11-24T08:50:28.807Z,10.29
2022-11-24T08:52:59.377Z,10.25
2022-11-24T08:55:32.193Z,10.29
2022-11-24T08:58:04.587Z,10.24
2022-11-24T09:00:36.986Z,10.17
2022-11-24T09:03:11.283Z,10.21
2022-11-24T09:05:51.578Z,10.22
2022-11-24T09:08:24.401Z,10.21
2022-11-24T09:10:56.754Z,10.24
2022-11-24T09:13:29.356Z,10.24
2022-11-24T09:16:03.529Z,10.21
2022-11-24T09:18:36.168Z,10.17
2022-11-24T09:21:13.015Z,10.10
2022-11-24T09:23:47.082Z,10.09
2022-11-24T09:26:21.403Z,10.11
2022-11-24T09:28:55.596Z,10.15
2022-11-24T09:31:29.723Z,10.19
2022-11-24T09:34:02.168Z,10.24
2022-11-24T09:36:34.543Z,10.25
2022-11-24T09:39:07.141Z,10.26
2022-11-24T09:41:57.260Z,10.22
2022-11-24T09:44:54.787Z,10.20
2022-11-24T09:47:37.881Z,10.21
2022-11-24T09:50:17.064Z,10.23
2022-11-24T09:52:51.774Z,10.29
2022-11-24T09:55:31.733Z,10.36
2022-11-24T09:58:12.639Z,10.41
2022-11-24T10:00:45.315Z,10.45
2022-11-24T10:03:24.726Z,10.50
2022-11-24T10:05:57.353Z,10.50
2022-11-24T10:08:42.336Z,10.43
2022-11-24T10:11:16.941Z,10.43
2022-11-24T10:14:05.949Z,10.45
2022-11-24T10:16:47.095Z,10.47
2022-11-24T10:19:36.391Z,10.48
2022-11-24T10:22:26.203Z,10.44
2022-11-24T10:25:10.442Z,10.47
2022-11-24T10:27:45.775Z,10.42
2022-11-24T10:30:20.859Z,10.45
2022-11-24T10:32:56.933Z,10.42
2022-11-24T10:35:47.148Z,10.33
2022-11-24T10:38:31.349Z,10.34
2022-11-24T10:41:06.921Z,10.27
2022-11-24T10:43:39.722Z,10.24
2022-11-24T10:46:15.860Z,10.24
2022-11-24T10:48:51.550Z,10.24
2022-11-24T10:51:37.212Z,10.28
2022-11-24T10:54:16.257Z,10.29
2022-11-24T10:56:51.846Z,10.34
2022-11-24T10:59:32.282Z,10.38
2022-11-24T11:02:10.726Z,10.29
2022-11-24T11:04:43.861Z,10.22
2022-11-24T11:07:27.037Z,10.18
2022-11-24T11:10:23.682Z,10.16
2022-11-24T11:12:56.371Z,10.16
2022-11-24T11:15:31.823Z,10.19
2022-11-24T11:18:07.883Z,10.27
2022-11-24T11:20:40.823Z,10.39
2022-11-24T11:23:21.331Z,10.52
2022-11-24T11:25:54.259Z,10.57
2022-11-24T11:28:29.808Z,10.59
2022-11-24T11:31:22.108Z,10.67
2022-11-24T11:34:06.984Z,10.69
2022-11-24T11:36:45.135Z,10.72
2022-11-24T11:39:27.069Z,10.78
2022-11-24T11:42:08.137Z,10.91
2022-11-24T11:44:43.480Z,10.98
2022-11-24T11:47:24.063Z,11.14
2022-11-24T11:49:56.788Z,11.31
2022-11-24T11:52:48.508Z,11.34
2022-11-24T11:55:38.918Z,11.29
2022-11-24T11:58:23.768Z,11.27
2022-11-24T12:05:07.798Z,11.33
2022-11-24T12:08:11.585Z,11.41
2022-11-24T12:10:49.924Z,11.47
2022-11-24T12:13:53.890Z,11.46
2022-11-24T12:16:35.386Z,11.52
2022-11-24T12:19:29.418Z,11.56
2022-11-24T12:22:09.225Z,11.55
2022-11-24T12:24:48.440Z,11.54
2022-11-24T12:27:28.125Z,11.49
2022-11-24T12:30:11.096Z,11.44
2022-11-24T12:33:23.920Z,11.43
2022-11-24T12:36:08.142Z,11.38
2022-11-24T12:38:50.449Z,11.31
2022-11-24T12:41:45.798Z,11.25
2022-11-24T12:44:32.225Z,11.19
2022-11-24T12:47:11.280Z,11.15
2022-11-24T12:49:51.679Z,11.02
2022-11-24T12:52:26.760Z,10.94
2022-11-24T12:54:59.643Z,10.74
2022-11-24T12:57:34.451Z,10.58
2022-11-24T13:00:09.597Z,10.40
2022-11-24T13:02:59.146Z,10.26
2022-11-24T13:05:36.393Z,10.20
2022-11-24T13:08:09.208Z,10.14
2022-11-24T13:13:59.698Z,10.04
2022-11-24T13:16:37.014Z,9.97
2022-11-24T13:19:18.491Z,9.88
2022-11-24T13:21:58.278Z,9.79
2022-11-24T13:24:32.115Z,9.78
2022-11-24T13:27:30.101Z,9.80
2022-11-24T13:30:02.587Z,9.85
2022-11-24T13:33:03.404Z,9.93
2022-11-24T13:35:37.146Z,9.88
2022-11-24T13:38:52.788Z,9.84
2022-11-24T13:42:00.751Z,9.79
2022-11-24T13:44:46.105Z,9.75
2022-11-24T13:47:45.510Z,9.72
2022-11-24T13:50:25.878Z,9.67
2022-11-24T13:53:08.174Z,9.69
2022-11-24T13:55:42.029Z,9.75
2022-11-24T13:58:37.611Z,9.81
2022-11-24T14:01:19.608Z,9.85
2022-11-24T14:07:02.407Z,9.90
2022-11-24T14:09:41.552Z,9.90
2022-11-24T14:12:18.243Z,9.90
2022-11-24T14:14:51.441Z,9.83
2022-11-24T14:17:25.594Z,9.71
2022-11-24T14:19:59.118Z,9.61
2022-11-24T14:22:38.247Z,9.54
2022-11-24T14:25:24.443Z,9.44
2022-11-24T14:27:57.089Z,9.34
2022-11-24T14:30:29.932Z,9.25
2022-11-24T14:33:03.696Z,9.19
2022-11-24T14:35:37.182Z,9.21
2022-11-24T14:38:09.993Z,9.22
2022-11-24T14:40:47.171Z,9.25
2022-11-24T14:43:23.047Z,9.28
2022-11-24T14:45:57.371Z,9.26
2022-11-24T14:48:31.675Z,9.29
2022-11-24T14:51:16.535Z,9.31
2022-11-24T14:53:50.347Z,9.33
2022-11-24T14:56:30.671Z,9.31
2022-11-24T14:59:02.910Z,9.31
2022-11-24T15:01:36.482Z,9.31
2022-11-24T15:07:23.960Z,9.11
2022-11-24T15:09:58.337Z,9.06
2022-11-24T15:12:34.509Z,9.04
2022-11-24T15:15:08.290Z,9.07
2022-11-24T15:17:42.802Z,9.09
2022-11-24T15:20:21.250Z,9.15
2022-11-24T15:22:53.451Z,9.17
2022-11-24T15:25:31.200Z,9.16
2022-11-24T15:28:03.611Z,9.19
2022-11-24T15:30:37.307Z,9.25
2022-11-24T15:33:16.644Z,9.30
2022-11-24T15:35:48.896Z,9.33
2022-11-24T15:38:21.161Z,9.36
2022-11-24T15:40:54.981Z,9.34
2022-11-24T15:43:31.160Z,9.25
2022-11-24T15:46:04.410Z,9.20
2022-11-24T15:48:36.758Z,9.16
2022-11-24T15:51:15.274Z,9.12
2022-11-24T15:53:49.661Z,9.10
2022-11-24T15:56:26.519Z,9.10
2022-11-24T15:58:58.886Z,9.14
2022-11-24T16:01:33.318Z,9.13
2022-11-24T16:04:05.969Z,9.12
2022-11-24T16:06:38.337Z,9.10
2022-11-24T16:09:15.037Z,9.05
2022-11-24T16:11:47.417Z,9.00
2022-11-24T16:14:19.660Z,9.01
2022-11-24T16:16:52.231Z,9.00
2022-11-24T16:19:24.558Z,8.95
2022-11-24T16:21:56.781Z,8.91
2022-11-24T16:24:29.206Z,8.87
2022-11-24T16:27:01.521Z,8.89
2022-11-24T16:29:38.214Z,8.86
2022-11-24T16:32:10.844Z,8.79
2022-11-24T16:34:43.119Z,8.73
2022-11-24T16:37:15.527Z,8.69
2022-11-24T16:39:50.265Z,8.58
2022-11-24T16:42:22.874Z,8.51
2022-11-24T16:44:56.036Z,8.44
2022-11-24T16:47:28.351Z,8.38
2022-11-24T16:50:00.676Z,8.31
2022-11-24T16:52:33.046Z,8.30
2022-11-24T16:55:05.841Z,8.27
2022-11-24T16:57:38.260Z,8.22
2022-11-24T17:00:13.162Z,8.22
2022-11-24T17:02:46.499Z,8.25
2022-11-24T17:05:19.037Z,8.23
2022-11-24T17:07:51.309Z,8.22
2022-11-24T17:10:23.714Z,8.17
2022-11-24T17:12:55.946Z,8.16
2022-11-24T17:15:35.484Z,8.17
2022-11-24T17:18:24.180Z,8.20
2022-11-24T17:21:03.241Z,8.23
2022-11-24T17:23:38.762Z,8.23
2022-11-24T17:26:10.164Z,8.26
2022-11-24T17:28:43.572Z,8.22
2022-11-24T17:31:19.099Z,8.22
2022-11-24T17:33:51.999Z,8.25
2022-11-24T17:36:25.309Z,8.23
2022-11-24T17:38:58.325Z,8.24
2022-11-24T17:41:30.526Z,8.28
2022-11-24T17:44:02.914Z,8.27
2022-11-24T17:46:36.051Z,8.28
2022-11-24T17:49:13.136Z,8.28
2022-11-24T17:51:51.003Z,8.30
2022-11-24T17:57:15.537Z,8.20
2022-11-24T17:59:47.724Z,8.19
2022-11-24T18:02:20.134Z,8.24
2022-11-24T18:04:52.491Z,8.29
2022-11-24T18:07:24.924Z,8.26
2022-11-24T18:09:57.247Z,8.19
2022-11-24T18:12:30.246Z,8.12
2022-11-24T18:15:02.664Z,8.08
2022-11-24T18:17:35.025Z,8.01
2022-11-24T18:20:09.397Z,7.97
2022-11-24T18:25:37.303Z,7.89
2022-11-24T18:28:11.084Z,7.87
2022-11-24T18:30:44.740Z,7.82
2022-11-24T18:33:17.014Z,7.79
2022-11-24T18:35:58.349Z,7.77
2022-11-24T18:38:31.239Z,7.76
2022-11-24T18:41:01.734Z,7.77
2022-11-24T18:43:36.311Z,7.75
2022-11-24T18:46:11.316Z,7.75
2022-11-24T18:48:44.243Z,7.74
2022-11-24T18:51:16.997Z,7.70
2022-11-24T18:53:55.502Z,7.64
2022-11-24T18:56:28.381Z,7.60
2022-11-24T18:59:00.865Z,7.57
2022-11-24T19:01:33.393Z,7.61
2022-11-24T19:04:05.996Z,7.60
2022-11-24T19:06:37.562Z,7.61
2022-11-24T19:09:17.331Z,7.59
2022-11-24T19:11:51.132Z,7.56
2022-11-24T19:14:24.753Z,7.54
2022-11-24T19:16:58.831Z,7.53
2022-11-24T19:19:35.093Z,7.51
2022-11-24T19:22:08.701Z,7.51
2022-11-24T19:24:42.216Z,7.50
2022-11-24T19:27:17.084Z,7.47
2022-11-24T19:29:52.323Z,7.38
2022-11-24T19:32:29.327Z,7.32
2022-11-24T19:35:04.662Z,7.32
2022-11-24T19:37:37.816Z,7.35
2022-11-24T19:40:14.097Z,7.32
2022-11-24T19:42:47.934Z,7.28
2022-11-24T19:45:21.457Z,7.22
2022-11-24T19:47:54.700Z,7.24
2022-11-24T19:50:28.536Z,7.26
2022-11-24T19:53:02.067Z,7.27
2022-11-24T19:55:35.956Z,7.26
2022-11-24T19:58:08.706Z,7.30
2022-11-24T20:00:43.095Z,7.30
2022-11-24T20:03:17.344Z,7.32
2022-11-24T20:06:01.164Z,7.39
2022-11-24T20:08:37.083Z,7.46
2022-11-24T20:11:11.142Z,7.46
2022-11-24T20:20:09.252Z,7.47
2022-11-24T20:22:41.878Z,7.47
2022-11-24T20:25:12.547Z,7.52
2022-11-24T20:27:45.098Z,7.50
2022-11-24T20:30:17.944Z,7.44
2022-11-24T20:32:50.170Z,7.44
2022-11-24T20:35:22.539Z,7.51
2022-11-24T20:37:54.853Z,7.52
2022-11-24T20:40:27.506Z,7.50
2022-11-24T20:42:58.111Z,7.47
2022-11-24T20:45:30.382Z,7.46
2022-11-24T20:48:02.757Z,7.49
2022-11-24T20:50:36.911Z,7.52
2022-11-24T20:53:09.135Z,7.48
2022-11-24T20:55:41.514Z,7.41
2022-11-24T20:58:13.781Z,7.37
2022-11-24T21:00:46.400Z,7.34
2022-11-24T21:03:18.737Z,7.34
2022-11-24T21:05:57.526Z,7.37
2022-11-24T21:08:32.920Z,7.38
2022-11-24T21:11:06.616Z,7.38
2022-11-24T21:13:40.310Z,7.46
2022-11-24T21:16:18.017Z,7.55
2022-11-24T21:18:52.485Z,7.62
2022-11-24T21:21:25.751Z,7.69
2022-11-24T21:23:58.014Z,7.68
2022-11-24T21:26:32.600Z,7.65
2022-11-24T21:29:05.847Z,7.65
2022-11-24T21:31:39.552Z,7.66
2022-11-24T21:34:14.767Z,7.62
2022-11-24T21:36:47.297Z,7.60
2022-11-24T21:39:19.653Z,7.58
2022-11-24T21:41:51.879Z,7.58
2022-11-24T21:44:24.155Z,7.53
2022-11-24T21:46:56.412Z,7.52
2022-11-24T21:49:28.662Z,7.50
2022-11-24T21:52:00.916Z,7.50
2022-11-24T21:54:33.343Z,7.48
2022-11-24T21:57:05.811Z,7.48
2022-11-24T21:59:38.052Z,7.44
2022-11-24T22:02:13.257Z,7.43
2022-11-24T22:04:45.748Z,7.43
2022-11-24T22:07:17.998Z,7.48
2022-11-24T22:09:50.302Z,7.53
2022-11-24T22:12:22.511Z,7.54
2022-11-24T22:14:54.600Z,7.51
2022-11-24T22:17:26.771Z,7.54
2022-11-24T22:19:58.955Z,7.61
2022-11-24T22:22:31.231Z,7.67
2022-11-24T22:25:03.382Z,7.67
2022-11-24T22:27:35.571Z,7.61
2022-11-24T22:30:10.629Z,7.63
2022-11-24T22:32:42.855Z,7.66
2022-11-24T22:35:15.135Z,7.69
2022-11-24T22:37:47.405Z,7.70
2022-11-24T22:40:20.111Z,7.68
2022-11-24T22:42:50.701Z,7.68
2022-11-24T22:45:22.891Z,7.70
2022-11-24T22:47:57.650Z,7.77
2022-11-24T22:50:29.853Z,7.83
2022-11-24T22:53:02.139Z,7.86
2022-11-24T22:55:34.464Z,7.88
2022-11-24T22:58:06.662Z,7.89
2022-11-24T23:00:38.928Z,7.95
2022-11-24T23:03:11.142Z,7.98
2022-11-24T23:05:43.428Z,8.01
2022-11-24T23:08:15.599Z,8.02
2022-11-24T23:10:47.677Z,8.03
2022-11-24T23:13:19.875Z,8.09
2022-11-24T23:15:52.341Z,8.14
2022-11-24T23:18:24.522Z,8.10
2022-11-24T23:20:56.823Z,8.07
2022-11-24T23:23:28.990Z,8.09
2022-11-24T23:26:03.787Z,8.10
2022-11-24T23:28:36.254Z,8.09
2022-11-24T23:31:10.503Z,8.08
2022-11-24T23:33:43.009Z,8.12
2022-11-24T23:36:16.999Z,8.08
2022-11-24T23:38:49.550Z,8.02
2022-11-24T23:41:21.022Z,8.05
2022-11-24T23:43:53.516Z,8.08
2022-11-24T23:46:27.161Z,8.08
2022-11-24T23:48:59.676Z,8.05
2022-11-24T23:51:32.627Z,8.03
2022-11-24T23:54:08.275Z,8.06
2022-11-24T23:56:40.436Z,8.05
2022-11-24T23:59:13.802Z,8.03
